sensor_id;sensor_type;location;lat;lon;timestamp;P1;durP1;ratioP1;P2;durP2;ratioP2
17844;SDS011;9047;53.486;10.218;2023-05-17T00:02:10;15.30;;;4.82;;
17844;SDS011;9047;53.486;10.218;2023-05-17T00:04:37;16.10;;;4.13;;
17844;SDS011;9047;53.486;10.218;2023-05-17T00:07:04;18.48;;;3.97;;
17844;SDS011;9047;53.486;10.218;2023-05-17T00:09:32;20.38;;;5.00;;
17844;SDS011;9047;53.486;10.218;2023-05-17T00:11:59;19.77;;;4.72;;
17844;SDS011;9047;53.486;10.218;2023-05-17T00:14:27;20.85;;;5.20;;
17844;SDS011;9047;53.486;10.218;2023-05-17T00:17:03;16.33;;;4.57;;
17844;SDS011;9047;53.486;10.218;2023-05-17T00:19:30;18.40;;;3.92;;
17844;SDS011;9047;53.486;10.218;2023-05-17T00:21:57;18.05;;;3.80;;
17844;SDS011;9047;53.486;10.218;2023-05-17T00:24:24;24.08;;;4.25;;
17844;SDS011;9047;53.486;10.218;2023-05-17T00:26:53;19.98;;;4.40;;
17844;SDS011;9047;53.486;10.218;2023-05-17T00:29:19;14.68;;;4.20;;
17844;SDS011;9047;53.486;10.218;2023-05-17T00:31:46;16.70;;;3.92;;
17844;SDS011;9047;53.486;10.218;2023-05-17T00:34:13;18.95;;;4.20;;
17844;SDS011;9047;53.486;10.218;2023-05-17T00:36:40;19.00;;;4.25;;
17844;SDS011;9047;53.486;10.218;2023-05-17T00:39:08;22.75;;;4.38;;
17844;SDS011;9047;53.486;10.218;2023-05-17T00:41:35;18.00;;;3.70;;
17844;SDS011;9047;53.486;10.218;2023-05-17T00:44:06;20.77;;;4.07;;
17844;SDS011;9047;53.486;10.218;2023-05-17T00:46:32;23.08;;;3.92;;
17844;SDS011;9047;53.486;10.218;2023-05-17T00:48:59;13.13;;;3.33;;
17844;SDS011;9047;53.486;10.218;2023-05-17T00:51:27;21.40;;;3.83;;
17844;SDS011;9047;53.486;10.218;2023-05-17T00:53:55;24.58;;;5.07;;
17844;SDS011;9047;53.486;10.218;2023-05-17T00:56:22;20.48;;;4.05;;
17844;SDS011;9047;53.486;10.218;2023-05-17T00:58:49;22.63;;;3.70;;
17844;SDS011;9047;53.486;10.218;2023-05-17T01:01:17;14.23;;;3.75;;
17844;SDS011;9047;53.486;10.218;2023-05-17T01:03:45;17.73;;;3.45;;
17844;SDS011;9047;53.486;10.218;2023-05-17T01:06:12;19.52;;;3.88;;
17844;SDS011;9047;53.486;10.218;2023-05-17T01:08:39;22.08;;;3.92;;
17844;SDS011;9047;53.486;10.218;2023-05-17T01:11:09;20.92;;;4.00;;
17844;SDS011;9047;53.486;10.218;2023-05-17T01:13:46;18.52;;;4.00;;
17844;SDS011;9047;53.486;10.218;2023-05-17T01:16:31;24.75;;;3.55;;
17844;SDS011;9047;53.486;10.218;2023-05-17T01:19:05;15.57;;;3.65;;
17844;SDS011;9047;53.486;10.218;2023-05-17T01:21:45;14.85;;;3.08;;
17844;SDS011;9047;53.486;10.218;2023-05-17T01:24:24;20.48;;;3.97;;
17844;SDS011;9047;53.486;10.218;2023-05-17T01:26:55;15.48;;;3.45;;
17844;SDS011;9047;53.486;10.218;2023-05-17T01:29:25;16.90;;;4.10;;
17844;SDS011;9047;53.486;10.218;2023-05-17T01:31:55;16.65;;;3.65;;
17844;SDS011;9047;53.486;10.218;2023-05-17T01:34:24;20.38;;;4.00;;
17844;SDS011;9047;53.486;10.218;2023-05-17T01:36:51;17.52;;;3.38;;
17844;SDS011;9047;53.486;10.218;2023-05-17T01:39:18;21.98;;;4.00;;
17844;SDS011;9047;53.486;10.218;2023-05-17T01:41:46;18.00;;;3.35;;
17844;SDS011;9047;53.486;10.218;2023-05-17T01:44:23;21.23;;;3.42;;
17844;SDS011;9047;53.486;10.218;2023-05-17T01:46:56;15.82;;;3.40;;
17844;SDS011;9047;53.486;10.218;2023-05-17T01:49:31;20.83;;;3.70;;
17844;SDS011;9047;53.486;10.218;2023-05-17T01:52:02;20.48;;;3.30;;
17844;SDS011;9047;53.486;10.218;2023-05-17T01:54:35;15.02;;;3.85;;
17844;SDS011;9047;53.486;10.218;2023-05-17T01:57:06;17.50;;;3.28;;
17844;SDS011;9047;53.486;10.218;2023-05-17T01:59:37;15.70;;;3.38;;
17844;SDS011;9047;53.486;10.218;2023-05-17T02:02:07;20.23;;;3.20;;
17844;SDS011;9047;53.486;10.218;2023-05-17T02:04:34;16.30;;;3.63;;
17844;SDS011;9047;53.486;10.218;2023-05-17T02:07:01;12.30;;;2.72;;
17844;SDS011;9047;53.486;10.218;2023-05-17T02:09:29;16.65;;;3.33;;
17844;SDS011;9047;53.486;10.218;2023-05-17T02:11:56;16.42;;;2.90;;
17844;SDS011;9047;53.486;10.218;2023-05-17T02:14:25;16.08;;;2.67;;
17844;SDS011;9047;53.486;10.218;2023-05-17T02:16:53;19.73;;;2.90;;
17844;SDS011;9047;53.486;10.218;2023-05-17T02:19:20;17.13;;;3.22;;
17844;SDS011;9047;53.486;10.218;2023-05-17T02:21:47;16.10;;;2.60;;
17844;SDS011;9047;53.486;10.218;2023-05-17T02:24:14;19.88;;;2.92;;
17844;SDS011;9047;53.486;10.218;2023-05-17T02:26:41;13.43;;;2.78;;
17844;SDS011;9047;53.486;10.218;2023-05-17T02:29:09;15.43;;;2.63;;
17844;SDS011;9047;53.486;10.218;2023-05-17T02:31:36;17.17;;;2.70;;
17844;SDS011;9047;53.486;10.218;2023-05-17T02:34:07;12.15;;;2.10;;
17844;SDS011;9047;53.486;10.218;2023-05-17T02:36:34;13.43;;;2.33;;
17844;SDS011;9047;53.486;10.218;2023-05-17T02:39:01;12.20;;;2.38;;
17844;SDS011;9047;53.486;10.218;2023-05-17T02:41:27;14.38;;;2.50;;
17844;SDS011;9047;53.486;10.218;2023-05-17T02:43:54;14.90;;;2.70;;
17844;SDS011;9047;53.486;10.218;2023-05-17T02:46:21;15.57;;;2.67;;
17844;SDS011;9047;53.486;10.218;2023-05-17T02:48:48;11.63;;;2.63;;
17844;SDS011;9047;53.486;10.218;2023-05-17T02:51:17;17.30;;;2.85;;
17844;SDS011;9047;53.486;10.218;2023-05-17T02:53:44;12.77;;;2.30;;
17844;SDS011;9047;53.486;10.218;2023-05-17T02:56:11;17.15;;;2.65;;
17844;SDS011;9047;53.486;10.218;2023-05-17T02:58:38;10.65;;;1.90;;
17844;SDS011;9047;53.486;10.218;2023-05-17T03:01:05;11.63;;;2.47;;
17844;SDS011;9047;53.486;10.218;2023-05-17T03:03:31;14.50;;;2.78;;
17844;SDS011;9047;53.486;10.218;2023-05-17T03:05:59;12.77;;;2.42;;
17844;SDS011;9047;53.486;10.218;2023-05-17T03:08:28;14.38;;;2.50;;
17844;SDS011;9047;53.486;10.218;2023-05-17T03:10:55;10.63;;;2.30;;
17844;SDS011;9047;53.486;10.218;2023-05-17T03:13:22;16.50;;;2.40;;
17844;SDS011;9047;53.486;10.218;2023-05-17T03:15:51;11.18;;;2.15;;
17844;SDS011;9047;53.486;10.218;2023-05-17T03:18:18;16.55;;;2.33;;
17844;SDS011;9047;53.486;10.218;2023-05-17T03:20:45;14.80;;;2.22;;
17844;SDS011;9047;53.486;10.218;2023-05-17T03:23:12;16.23;;;2.63;;
17844;SDS011;9047;53.486;10.218;2023-05-17T03:25:41;13.38;;;2.00;;
17844;SDS011;9047;53.486;10.218;2023-05-17T03:28:08;11.40;;;2.17;;
17844;SDS011;9047;53.486;10.218;2023-05-17T03:30:35;14.90;;;2.30;;
17844;SDS011;9047;53.486;10.218;2023-05-17T03:33:02;16.45;;;2.40;;
17844;SDS011;9047;53.486;10.218;2023-05-17T03:35:29;11.68;;;2.33;;
17844;SDS011;9047;53.486;10.218;2023-05-17T03:37:56;14.65;;;2.45;;
17844;SDS011;9047;53.486;10.218;2023-05-17T03:40:24;17.35;;;2.40;;
17844;SDS011;9047;53.486;10.218;2023-05-17T03:42:53;8.05;;;1.98;;
17844;SDS011;9047;53.486;10.218;2023-05-17T03:45:20;14.20;;;2.10;;
17844;SDS011;9047;53.486;10.218;2023-05-17T03:47:47;11.88;;;2.42;;
17844;SDS011;9047;53.486;10.218;2023-05-17T03:50:16;13.60;;;2.00;;
17844;SDS011;9047;53.486;10.218;2023-05-17T03:52:43;12.77;;;2.25;;
17844;SDS011;9047;53.486;10.218;2023-05-17T03:55:10;12.70;;;1.85;;
17844;SDS011;9047;53.486;10.218;2023-05-17T03:57:37;12.88;;;2.42;;
17844;SDS011;9047;53.486;10.218;2023-05-17T04:00:06;9.85;;;1.98;;
17844;SDS011;9047;53.486;10.218;2023-05-17T04:02:34;15.82;;;2.75;;
17844;SDS011;9047;53.486;10.218;2023-05-17T04:05:01;8.70;;;2.05;;
17844;SDS011;9047;53.486;10.218;2023-05-17T04:07:28;13.77;;;2.00;;
17844;SDS011;9047;53.486;10.218;2023-05-17T04:09:58;12.25;;;2.08;;
17844;SDS011;9047;53.486;10.218;2023-05-17T04:12:26;13.88;;;2.55;;
17844;SDS011;9047;53.486;10.218;2023-05-17T04:14:56;13.98;;;2.22;;
17844;SDS011;9047;53.486;10.218;2023-05-17T04:17:25;13.27;;;2.80;;
17844;SDS011;9047;53.486;10.218;2023-05-17T04:19:51;15.50;;;2.40;;
17844;SDS011;9047;53.486;10.218;2023-05-17T04:22:19;10.75;;;2.05;;
17844;SDS011;9047;53.486;10.218;2023-05-17T04:24:55;13.40;;;2.45;;
17844;SDS011;9047;53.486;10.218;2023-05-17T04:27:22;12.23;;;2.50;;
17844;SDS011;9047;53.486;10.218;2023-05-17T04:29:49;12.95;;;2.35;;
17844;SDS011;9047;53.486;10.218;2023-05-17T04:32:17;10.55;;;2.30;;
17844;SDS011;9047;53.486;10.218;2023-05-17T04:34:45;15.65;;;2.63;;
17844;SDS011;9047;53.486;10.218;2023-05-17T04:37:13;15.75;;;2.67;;
17844;SDS011;9047;53.486;10.218;2023-05-17T04:39:41;15.60;;;2.30;;
17844;SDS011;9047;53.486;10.218;2023-05-17T04:42:07;12.40;;;2.20;;
17844;SDS011;9047;53.486;10.218;2023-05-17T04:44:34;20.20;;;2.40;;
17844;SDS011;9047;53.486;10.218;2023-05-17T04:47:01;16.35;;;2.38;;
17844;SDS011;9047;53.486;10.218;2023-05-17T04:49:29;13.05;;;2.30;;
17844;SDS011;9047;53.486;10.218;2023-05-17T04:51:57;12.93;;;2.17;;
17844;SDS011;9047;53.486;10.218;2023-05-17T04:54:25;12.95;;;2.10;;
17844;SDS011;9047;53.486;10.218;2023-05-17T04:56:52;13.07;;;2.42;;
17844;SDS011;9047;53.486;10.218;2023-05-17T04:59:18;15.73;;;2.47;;
17844;SDS011;9047;53.486;10.218;2023-05-17T05:01:45;10.68;;;2.42;;
17844;SDS011;9047;53.486;10.218;2023-05-17T05:04:12;12.27;;;2.50;;
17844;SDS011;9047;53.486;10.218;2023-05-17T05:06:39;14.68;;;2.60;;
17844;SDS011;9047;53.486;10.218;2023-05-17T05:09:08;7.05;;;2.08;;
17844;SDS011;9047;53.486;10.218;2023-05-17T05:11:35;11.85;;;2.67;;
17844;SDS011;9047;53.486;10.218;2023-05-17T05:14:02;12.50;;;2.28;;
17844;SDS011;9047;53.486;10.218;2023-05-17T05:16:29;11.60;;;2.30;;
17844;SDS011;9047;53.486;10.218;2023-05-17T05:18:56;14.65;;;2.65;;
17844;SDS011;9047;53.486;10.218;2023-05-17T05:21:23;13.82;;;2.45;;
17844;SDS011;9047;53.486;10.218;2023-05-17T05:23:50;12.15;;;2.10;;
17844;SDS011;9047;53.486;10.218;2023-05-17T05:26:19;12.50;;;2.38;;
17844;SDS011;9047;53.486;10.218;2023-05-17T05:28:45;15.52;;;2.63;;
17844;SDS011;9047;53.486;10.218;2023-05-17T05:31:15;14.80;;;2.25;;
17844;SDS011;9047;53.486;10.218;2023-05-17T05:33:42;13.98;;;2.50;;
17844;SDS011;9047;53.486;10.218;2023-05-17T05:36:09;15.18;;;2.58;;
17844;SDS011;9047;53.486;10.218;2023-05-17T05:38:36;11.38;;;2.20;;
17844;SDS011;9047;53.486;10.218;2023-05-17T05:41:04;14.40;;;2.35;;
17844;SDS011;9047;53.486;10.218;2023-05-17T05:43:32;14.43;;;2.72;;
17844;SDS011;9047;53.486;10.218;2023-05-17T05:46:01;15.70;;;2.35;;
17844;SDS011;9047;53.486;10.218;2023-05-17T05:48:28;13.65;;;2.55;;
17844;SDS011;9047;53.486;10.218;2023-05-17T05:50:55;15.32;;;2.22;;
17844;SDS011;9047;53.486;10.218;2023-05-17T05:53:22;10.75;;;2.22;;
17844;SDS011;9047;53.486;10.218;2023-05-17T05:55:49;16.05;;;2.88;;
17844;SDS011;9047;53.486;10.218;2023-05-17T05:58:19;19.25;;;2.80;;
17844;SDS011;9047;53.486;10.218;2023-05-17T06:00:48;15.50;;;2.67;;
17844;SDS011;9047;53.486;10.218;2023-05-17T06:03:15;13.10;;;2.50;;
17844;SDS011;9047;53.486;10.218;2023-05-17T06:05:42;15.95;;;2.35;;
17844;SDS011;9047;53.486;10.218;2023-05-17T06:08:11;17.20;;;2.67;;
17844;SDS011;9047;53.486;10.218;2023-05-17T06:10:38;13.57;;;2.03;;
17844;SDS011;9047;53.486;10.218;2023-05-17T06:13:05;11.75;;;2.22;;
17844;SDS011;9047;53.486;10.218;2023-05-17T06:15:32;12.25;;;2.40;;
17844;SDS011;9047;53.486;10.218;2023-05-17T06:21:01;15.70;;;2.83;;
17844;SDS011;9047;53.486;10.218;2023-05-17T06:23:28;10.57;;;2.15;;
17844;SDS011;9047;53.486;10.218;2023-05-17T06:25:55;8.02;;;1.90;;
17844;SDS011;9047;53.486;10.218;2023-05-17T06:28:22;7.75;;;2.08;;
17844;SDS011;9047;53.486;10.218;2023-05-17T06:30:53;11.38;;;1.98;;
17844;SDS011;9047;53.486;10.218;2023-05-17T06:33:21;13.77;;;2.40;;
17844;SDS011;9047;53.486;10.218;2023-05-17T06:35:48;6.57;;;1.52;;
17844;SDS011;9047;53.486;10.218;2023-05-17T06:38:15;7.18;;;1.90;;
17844;SDS011;9047;53.486;10.218;2023-05-17T06:40:43;6.75;;;1.80;;
17844;SDS011;9047;53.486;10.218;2023-05-17T06:43:12;10.50;;;2.60;;
17844;SDS011;9047;53.486;10.218;2023-05-17T06:45:39;7.55;;;1.83;;
17844;SDS011;9047;53.486;10.218;2023-05-17T06:48:06;12.10;;;2.00;;
17844;SDS011;9047;53.486;10.218;2023-05-17T06:50:36;10.70;;;1.77;;
17844;SDS011;9047;53.486;10.218;2023-05-17T06:53:03;10.55;;;1.92;;
17844;SDS011;9047;53.486;10.218;2023-05-17T06:55:30;8.82;;;2.22;;
17844;SDS011;9047;53.486;10.218;2023-05-17T06:58:01;8.85;;;1.80;;
17844;SDS011;9047;53.486;10.218;2023-05-17T07:00:31;12.32;;;2.28;;
17844;SDS011;9047;53.486;10.218;2023-05-17T07:02:59;7.90;;;1.95;;
17844;SDS011;9047;53.486;10.218;2023-05-17T07:05:26;8.57;;;2.05;;
17844;SDS011;9047;53.486;10.218;2023-05-17T07:08:06;8.45;;;1.65;;
17844;SDS011;9047;53.486;10.218;2023-05-17T07:10:35;7.13;;;1.65;;
17844;SDS011;9047;53.486;10.218;2023-05-17T07:13:02;5.80;;;1.52;;
17844;SDS011;9047;53.486;10.218;2023-05-17T07:15:29;9.00;;;1.73;;
17844;SDS011;9047;53.486;10.218;2023-05-17T07:17:56;6.45;;;1.92;;
17844;SDS011;9047;53.486;10.218;2023-05-17T07:20:24;8.02;;;1.75;;
17844;SDS011;9047;53.486;10.218;2023-05-17T07:22:52;7.43;;;2.15;;
17844;SDS011;9047;53.486;10.218;2023-05-17T07:25:21;5.85;;;1.80;;
17844;SDS011;9047;53.486;10.218;2023-05-17T07:27:49;7.43;;;2.10;;
17844;SDS011;9047;53.486;10.218;2023-05-17T07:30:16;10.32;;;1.95;;
17844;SDS011;9047;53.486;10.218;2023-05-17T07:32:43;6.95;;;1.77;;
17844;SDS011;9047;53.486;10.218;2023-05-17T07:35:10;7.03;;;1.95;;
17844;SDS011;9047;53.486;10.218;2023-05-17T07:37:37;9.63;;;2.05;;
17844;SDS011;9047;53.486;10.218;2023-05-17T07:40:06;8.88;;;2.05;;
17844;SDS011;9047;53.486;10.218;2023-05-17T07:42:36;8.07;;;1.98;;
17844;SDS011;9047;53.486;10.218;2023-05-17T07:45:03;7.72;;;1.77;;
17844;SDS011;9047;53.486;10.218;2023-05-17T07:47:32;8.15;;;2.10;;
17844;SDS011;9047;53.486;10.218;2023-05-17T07:50:00;7.55;;;1.85;;
17844;SDS011;9047;53.486;10.218;2023-05-17T07:52:28;6.85;;;1.80;;
17844;SDS011;9047;53.486;10.218;2023-05-17T07:54:59;7.95;;;1.52;;
17844;SDS011;9047;53.486;10.218;2023-05-17T07:57:28;5.43;;;1.77;;
17844;SDS011;9047;53.486;10.218;2023-05-17T07:59:56;7.72;;;1.60;;
17844;SDS011;9047;53.486;10.218;2023-05-17T08:02:26;5.55;;;1.65;;
17844;SDS011;9047;53.486;10.218;2023-05-17T08:04:53;7.60;;;2.00;;
17844;SDS011;9047;53.486;10.218;2023-05-17T08:07:22;7.78;;;1.95;;
17844;SDS011;9047;53.486;10.218;2023-05-17T08:09:51;5.78;;;1.63;;
17844;SDS011;9047;53.486;10.218;2023-05-17T08:12:18;8.70;;;1.83;;
17844;SDS011;9047;53.486;10.218;2023-05-17T08:14:45;7.25;;;1.75;;
17844;SDS011;9047;53.486;10.218;2023-05-17T08:17:13;7.95;;;2.10;;
17844;SDS011;9047;53.486;10.218;2023-05-17T08:19:40;9.80;;;2.22;;
17844;SDS011;9047;53.486;10.218;2023-05-17T08:22:08;8.02;;;1.67;;
17844;SDS011;9047;53.486;10.218;2023-05-17T08:24:35;7.13;;;2.13;;
17844;SDS011;9047;53.486;10.218;2023-05-17T08:27:02;7.43;;;1.92;;
17844;SDS011;9047;53.486;10.218;2023-05-17T08:29:29;7.63;;;2.10;;
17844;SDS011;9047;53.486;10.218;2023-05-17T08:31:56;8.82;;;2.00;;
17844;SDS011;9047;53.486;10.218;2023-05-17T08:34:25;10.68;;;2.03;;
17844;SDS011;9047;53.486;10.218;2023-05-17T08:36:52;7.32;;;1.63;;
17844;SDS011;9047;53.486;10.218;2023-05-17T08:39:19;9.07;;;1.73;;
17844;SDS011;9047;53.486;10.218;2023-05-17T08:41:46;6.55;;;1.65;;
17844;SDS011;9047;53.486;10.218;2023-05-17T08:44:14;6.25;;;1.77;;
17844;SDS011;9047;53.486;10.218;2023-05-17T08:46:41;7.13;;;2.00;;
17844;SDS011;9047;53.486;10.218;2023-05-17T08:49:09;9.27;;;1.70;;
17844;SDS011;9047;53.486;10.218;2023-05-17T08:51:41;7.55;;;1.85;;
17844;SDS011;9047;53.486;10.218;2023-05-17T08:54:14;8.65;;;1.98;;
17844;SDS011;9047;53.486;10.218;2023-05-17T08:56:42;9.15;;;2.08;;
17844;SDS011;9047;53.486;10.218;2023-05-17T08:59:11;7.97;;;1.85;;
17844;SDS011;9047;53.486;10.218;2023-05-17T09:01:39;7.80;;;2.33;;
17844;SDS011;9047;53.486;10.218;2023-05-17T09:04:09;8.50;;;2.50;;
17844;SDS011;9047;53.486;10.218;2023-05-17T09:06:36;8.05;;;2.10;;
17844;SDS011;9047;53.486;10.218;2023-05-17T09:09:04;6.65;;;1.75;;
17844;SDS011;9047;53.486;10.218;2023-05-17T09:11:32;8.60;;;2.00;;
17844;SDS011;9047;53.486;10.218;2023-05-17T09:14:00;9.15;;;2.25;;
17844;SDS011;9047;53.486;10.218;2023-05-17T09:16:28;11.60;;;2.30;;
17844;SDS011;9047;53.486;10.218;2023-05-17T09:18:56;9.65;;;2.00;;
17844;SDS011;9047;53.486;10.218;2023-05-17T09:21:23;8.85;;;2.10;;
17844;SDS011;9047;53.486;10.218;2023-05-17T09:23:52;9.38;;;2.45;;
17844;SDS011;9047;53.486;10.218;2023-05-17T09:29:07;6.38;;;1.95;;
17844;SDS011;9047;53.486;10.218;2023-05-17T09:31:35;10.35;;;2.05;;
17844;SDS011;9047;53.486;10.218;2023-05-17T09:34:02;8.90;;;2.17;;
17844;SDS011;9047;53.486;10.218;2023-05-17T09:36:31;8.20;;;1.90;;
17844;SDS011;9047;53.486;10.218;2023-05-17T09:39:00;12.32;;;2.42;;
17844;SDS011;9047;53.486;10.218;2023-05-17T09:41:29;6.50;;;1.90;;
17844;SDS011;9047;53.486;10.218;2023-05-17T09:44:00;6.30;;;1.60;;
17844;SDS011;9047;53.486;10.218;2023-05-17T09:46:34;7.68;;;1.60;;
17844;SDS011;9047;53.486;10.218;2023-05-17T09:49:03;13.43;;;2.30;;
17844;SDS011;9047;53.486;10.218;2023-05-17T09:51:31;9.13;;;1.92;;
17844;SDS011;9047;53.486;10.218;2023-05-17T09:53:59;7.75;;;1.92;;
17844;SDS011;9047;53.486;10.218;2023-05-17T09:56:29;4.88;;;1.40;;
17844;SDS011;9047;53.486;10.218;2023-05-17T09:59:01;11.18;;;2.35;;
17844;SDS011;9047;53.486;10.218;2023-05-17T10:01:29;11.27;;;2.40;;
17844;SDS011;9047;53.486;10.218;2023-05-17T10:03:58;10.48;;;2.40;;
17844;SDS011;9047;53.486;10.218;2023-05-17T10:06:27;9.00;;;2.03;;
17844;SDS011;9047;53.486;10.218;2023-05-17T10:08:58;9.88;;;1.90;;
17844;SDS011;9047;53.486;10.218;2023-05-17T10:11:27;7.93;;;2.05;;
17844;SDS011;9047;53.486;10.218;2023-05-17T10:14:04;9.07;;;2.13;;
17844;SDS011;9047;53.486;10.218;2023-05-17T10:16:36;11.88;;;2.22;;
17844;SDS011;9047;53.486;10.218;2023-05-17T10:19:04;8.98;;;2.10;;
17844;SDS011;9047;53.486;10.218;2023-05-17T10:21:31;7.72;;;2.08;;
17844;SDS011;9047;53.486;10.218;2023-05-17T10:24:01;10.82;;;2.33;;
17844;SDS011;9047;53.486;10.218;2023-05-17T10:26:29;6.45;;;1.80;;
17844;SDS011;9047;53.486;10.218;2023-05-17T10:28:56;7.60;;;1.90;;
17844;SDS011;9047;53.486;10.218;2023-05-17T10:31:28;9.18;;;1.88;;
17844;SDS011;9047;53.486;10.218;2023-05-17T10:33:59;7.00;;;1.90;;
17844;SDS011;9047;53.486;10.218;2023-05-17T10:36:26;7.32;;;1.63;;
17844;SDS011;9047;53.486;10.218;2023-05-17T10:38:54;9.23;;;1.80;;
17844;SDS011;9047;53.486;10.218;2023-05-17T10:41:23;8.75;;;1.70;;
17844;SDS011;9047;53.486;10.218;2023-05-17T10:43:54;6.43;;;2.00;;
17844;SDS011;9047;53.486;10.218;2023-05-17T10:46:28;10.27;;;2.15;;
17844;SDS011;9047;53.486;10.218;2023-05-17T10:48:56;9.38;;;2.03;;
17844;SDS011;9047;53.486;10.218;2023-05-17T10:51:25;7.88;;;1.90;;
17844;SDS011;9047;53.486;10.218;2023-05-17T10:54:02;6.63;;;1.60;;
17844;SDS011;9047;53.486;10.218;2023-05-17T10:56:30;5.45;;;1.40;;
17844;SDS011;9047;53.486;10.218;2023-05-17T10:59:16;6.40;;;1.52;;
17844;SDS011;9047;53.486;10.218;2023-05-17T11:02:05;6.60;;;1.55;;
17844;SDS011;9047;53.486;10.218;2023-05-17T11:04:35;6.05;;;1.95;;
17844;SDS011;9047;53.486;10.218;2023-05-17T11:07:22;4.25;;;1.40;;
17844;SDS011;9047;53.486;10.218;2023-05-17T11:09:51;6.72;;;1.50;;
17844;SDS011;9047;53.486;10.218;2023-05-17T11:12:26;6.32;;;1.60;;
17844;SDS011;9047;53.486;10.218;2023-05-17T11:14:55;5.10;;;1.55;;
17844;SDS011;9047;53.486;10.218;2023-05-17T11:17:33;6.15;;;1.55;;
17844;SDS011;9047;53.486;10.218;2023-05-17T11:20:02;7.40;;;1.73;;
17844;SDS011;9047;53.486;10.218;2023-05-17T11:22:34;5.78;;;1.60;;
17844;SDS011;9047;53.486;10.218;2023-05-17T11:25:05;4.30;;;1.27;;
17844;SDS011;9047;53.486;10.218;2023-05-17T11:27:37;6.75;;;1.67;;
17844;SDS011;9047;53.486;10.218;2023-05-17T11:30:14;5.47;;;1.75;;
17844;SDS011;9047;53.486;10.218;2023-05-17T11:32:47;5.25;;;1.75;;
17844;SDS011;9047;53.486;10.218;2023-05-17T11:35:16;5.60;;;1.63;;
17844;SDS011;9047;53.486;10.218;2023-05-17T11:37:44;8.68;;;1.80;;
17844;SDS011;9047;53.486;10.218;2023-05-17T11:40:22;7.13;;;1.95;;
17844;SDS011;9047;53.486;10.218;2023-05-17T11:43:11;8.13;;;1.80;;
17844;SDS011;9047;53.486;10.218;2023-05-17T11:45:47;5.57;;;1.90;;
17844;SDS011;9047;53.486;10.218;2023-05-17T11:48:20;7.65;;;1.90;;
17844;SDS011;9047;53.486;10.218;2023-05-17T11:50:50;4.38;;;1.25;;
17844;SDS011;9047;53.486;10.218;2023-05-17T11:53:18;4.18;;;1.50;;
17844;SDS011;9047;53.486;10.218;2023-05-17T11:55:46;6.07;;;1.38;;
17844;SDS011;9047;53.486;10.218;2023-05-17T11:58:15;3.42;;;1.15;;
17844;SDS011;9047;53.486;10.218;2023-05-17T12:00:43;6.22;;;1.40;;
17844;SDS011;9047;53.486;10.218;2023-05-17T12:03:15;4.82;;;1.20;;
17844;SDS011;9047;53.486;10.218;2023-05-17T12:05:47;6.05;;;1.33;;
17844;SDS011;9047;53.486;10.218;2023-05-17T12:08:19;6.43;;;1.63;;
17844;SDS011;9047;53.486;10.218;2023-05-17T12:10:47;6.68;;;1.50;;
17844;SDS011;9047;53.486;10.218;2023-05-17T12:13:16;5.78;;;1.80;;
17844;SDS011;9047;53.486;10.218;2023-05-17T12:15:45;6.07;;;1.98;;
17844;SDS011;9047;53.486;10.218;2023-05-17T12:18:15;6.97;;;1.77;;
17844;SDS011;9047;53.486;10.218;2023-05-17T12:21:00;8.57;;;2.03;;
17844;SDS011;9047;53.486;10.218;2023-05-17T12:23:29;4.10;;;1.27;;
17844;SDS011;9047;53.486;10.218;2023-05-17T12:26:03;4.75;;;1.70;;
17844;SDS011;9047;53.486;10.218;2023-05-17T12:28:41;7.15;;;1.55;;
17844;SDS011;9047;53.486;10.218;2023-05-17T12:31:10;5.82;;;1.40;;
17844;SDS011;9047;53.486;10.218;2023-05-17T12:33:40;4.10;;;1.50;;
17844;SDS011;9047;53.486;10.218;2023-05-17T12:36:10;5.35;;;1.42;;
17844;SDS011;9047;53.486;10.218;2023-05-17T12:38:39;5.50;;;1.55;;
17844;SDS011;9047;53.486;10.218;2023-05-17T12:41:10;4.25;;;1.50;;
17844;SDS011;9047;53.486;10.218;2023-05-17T12:44:07;7.35;;;1.50;;
17844;SDS011;9047;53.486;10.218;2023-05-17T12:46:34;5.45;;;1.83;;
17844;SDS011;9047;53.486;10.218;2023-05-17T12:49:04;6.97;;;1.70;;
17844;SDS011;9047;53.486;10.218;2023-05-17T12:51:39;8.35;;;1.90;;
17844;SDS011;9047;53.486;10.218;2023-05-17T12:54:09;8.70;;;2.30;;
17844;SDS011;9047;53.486;10.218;2023-05-17T12:56:39;7.90;;;2.35;;
17844;SDS011;9047;53.486;10.218;2023-05-17T12:59:10;6.25;;;2.10;;
17844;SDS011;9047;53.486;10.218;2023-05-17T13:01:42;8.15;;;1.80;;
17844;SDS011;9047;53.486;10.218;2023-05-17T13:04:12;5.55;;;1.65;;
17844;SDS011;9047;53.486;10.218;2023-05-17T13:06:45;9.63;;;2.10;;
17844;SDS011;9047;53.486;10.218;2023-05-17T13:09:21;10.93;;;2.83;;
17844;SDS011;9047;53.486;10.218;2023-05-17T13:11:50;12.40;;;2.20;;
17844;SDS011;9047;53.486;10.218;2023-05-17T13:14:33;7.38;;;1.75;;
17844;SDS011;9047;53.486;10.218;2023-05-17T13:17:03;7.90;;;1.80;;
17844;SDS011;9047;53.486;10.218;2023-05-17T13:19:31;6.20;;;2.13;;
17844;SDS011;9047;53.486;10.218;2023-05-17T13:22:01;4.38;;;1.50;;
17844;SDS011;9047;53.486;10.218;2023-05-17T13:24:29;8.93;;;2.08;;
17844;SDS011;9047;53.486;10.218;2023-05-17T13:26:58;7.35;;;1.90;;
17844;SDS011;9047;53.486;10.218;2023-05-17T13:29:25;7.95;;;1.70;;
17844;SDS011;9047;53.486;10.218;2023-05-17T13:31:53;3.97;;;1.23;;
17844;SDS011;9047;53.486;10.218;2023-05-17T13:34:21;6.65;;;1.55;;
17844;SDS011;9047;53.486;10.218;2023-05-17T13:36:51;7.93;;;2.00;;
17844;SDS011;9047;53.486;10.218;2023-05-17T13:39:22;9.18;;;1.90;;
17844;SDS011;9047;53.486;10.218;2023-05-17T13:41:49;6.10;;;1.90;;
17844;SDS011;9047;53.486;10.218;2023-05-17T13:44:23;6.95;;;1.63;;
17844;SDS011;9047;53.486;10.218;2023-05-17T13:46:50;6.38;;;1.52;;
17844;SDS011;9047;53.486;10.218;2023-05-17T13:49:19;5.22;;;1.67;;
17844;SDS011;9047;53.486;10.218;2023-05-17T13:51:49;5.70;;;1.60;;
17844;SDS011;9047;53.486;10.218;2023-05-17T13:54:18;8.25;;;1.77;;
17844;SDS011;9047;53.486;10.218;2023-05-17T13:56:47;6.10;;;1.40;;
17844;SDS011;9047;53.486;10.218;2023-05-17T13:59:14;6.40;;;1.50;;
17844;SDS011;9047;53.486;10.218;2023-05-17T14:01:41;8.18;;;1.60;;
17844;SDS011;9047;53.486;10.218;2023-05-17T14:04:13;4.85;;;1.90;;
17844;SDS011;9047;53.486;10.218;2023-05-17T14:06:43;6.15;;;2.20;;
17844;SDS011;9047;53.486;10.218;2023-05-17T14:09:10;8.07;;;1.88;;
17844;SDS011;9047;53.486;10.218;2023-05-17T14:11:39;6.63;;;1.70;;
17844;SDS011;9047;53.486;10.218;2023-05-17T14:14:10;7.05;;;1.80;;
17844;SDS011;9047;53.486;10.218;2023-05-17T14:16:37;6.57;;;1.60;;
17844;SDS011;9047;53.486;10.218;2023-05-17T14:19:05;6.53;;;1.98;;
17844;SDS011;9047;53.486;10.218;2023-05-17T14:21:32;6.03;;;1.73;;
17844;SDS011;9047;53.486;10.218;2023-05-17T14:23:59;7.22;;;2.00;;
17844;SDS011;9047;53.486;10.218;2023-05-17T14:26:26;7.03;;;1.80;;
17844;SDS011;9047;53.486;10.218;2023-05-17T14:28:53;4.13;;;1.50;;
17844;SDS011;9047;53.486;10.218;2023-05-17T14:31:22;8.32;;;1.92;;
17844;SDS011;9047;53.486;10.218;2023-05-17T14:33:49;5.10;;;1.52;;
17844;SDS011;9047;53.486;10.218;2023-05-17T14:36:16;4.75;;;1.45;;
17844;SDS011;9047;53.486;10.218;2023-05-17T14:38:47;7.00;;;1.70;;
17844;SDS011;9047;53.486;10.218;2023-05-17T14:41:15;5.65;;;1.60;;
17844;SDS011;9047;53.486;10.218;2023-05-17T14:43:42;7.18;;;2.00;;
17844;SDS011;9047;53.486;10.218;2023-05-17T14:46:09;8.38;;;1.88;;
17844;SDS011;9047;53.486;10.218;2023-05-17T14:48:38;7.10;;;1.73;;
17844;SDS011;9047;53.486;10.218;2023-05-17T14:51:07;5.50;;;1.60;;
17844;SDS011;9047;53.486;10.218;2023-05-17T14:53:34;6.25;;;1.63;;
17844;SDS011;9047;53.486;10.218;2023-05-17T14:56:02;4.65;;;1.58;;
17844;SDS011;9047;53.486;10.218;2023-05-17T14:58:33;10.68;;;2.13;;